« Back
NWS Peachtree City, Ga » Text Product » MCN Terminal Aerodrome Forecast


Printer-friendly Version
Current Version              Previous Versions:   1  2  3  4  5  6  7  8  9  

Terminal Aerodrome Forecast

898
FTUS42 KFFC 251729
TAFMCN
TAF
KMCN 251729Z 2518/2618 21006KT P6SM FEW250
     FM251900 20009KT P6SM SCT250
     FM260300 23006KT P6SM OVC050
     FM260900 26005KT P6SM OVC020
     FM261500 29012G20KT P6SM BKN025=

USA.gov is the U.S. government's official web portal to all federal, state and local government web resources and services.